sensor_id;sensor_type;location;lat;lon;timestamp;pressure;altitude;pressure_sealevel;temperature;humidity
550;BME280;20066;48.764;9.176;2023-04-07T00:02:13;98216.09;;;10.90;59.79
550;BME280;20066;48.764;9.176;2023-04-07T00:04:42;98212.66;;;10.57;60.72
550;BME280;20066;48.764;9.176;2023-04-07T00:07:09;98204.59;;;10.93;59.96
550;BME280;20066;48.764;9.176;2023-04-07T00:09:37;98205.31;;;11.29;58.25
550;BME280;20066;48.764;9.176;2023-04-07T00:12:05;98202.66;;;11.25;59.14
550;BME280;20066;48.764;9.176;2023-04-07T00:14:33;98208.75;;;11.43;58.38
550;BME280;20066;48.764;9.176;2023-04-07T00:17:02;98201.50;;;11.01;59.56
550;BME280;20066;48.764;9.176;2023-04-07T00:19:30;98200.72;;;10.97;60.17
550;BME280;20066;48.764;9.176;2023-04-07T00:21:59;98196.53;;;10.64;59.75
550;BME280;20066;48.764;9.176;2023-04-07T00:24:26;98194.19;;;10.49;61.26
550;BME280;20066;48.764;9.176;2023-04-07T00:27:00;98190.75;;;10.80;59.78
550;BME280;20066;48.764;9.176;2023-04-07T00:29:28;98188.44;;;10.61;60.80
550;BME280;20066;48.764;9.176;2023-04-07T00:31:56;98180.75;;;10.84;58.11
550;BME280;20066;48.764;9.176;2023-04-07T00:34:25;98176.44;;;10.16;60.47
550;BME280;20066;48.764;9.176;2023-04-07T00:36:53;98170.78;;;10.77;58.61
550;BME280;20066;48.764;9.176;2023-04-07T00:39:21;98168.06;;;10.56;60.88
550;BME280;20066;48.764;9.176;2023-04-07T00:41:49;98168.09;;;10.88;58.86
550;BME280;20066;48.764;9.176;2023-04-07T00:44:17;98168.06;;;10.74;60.91
550;BME280;20066;48.764;9.176;2023-04-07T00:46:46;98163.00;;;10.23;62.38
550;BME280;20066;48.764;9.176;2023-04-07T00:49:14;98167.31;;;10.77;60.33
550;BME280;20066;48.764;9.176;2023-04-07T00:51:44;98164.19;;;11.21;59.12
550;BME280;20066;48.764;9.176;2023-04-07T00:54:13;98162.69;;;10.92;60.70
550;BME280;20066;48.764;9.176;2023-04-07T00:56:41;98156.56;;;10.63;61.64
550;BME280;20066;48.764;9.176;2023-04-07T00:59:09;98151.16;;;10.45;60.20
550;BME280;20066;48.764;9.176;2023-04-07T01:01:39;98145.78;;;10.45;61.40
550;BME280;20066;48.764;9.176;2023-04-07T01:04:17;98140.41;;;10.77;61.91
550;BME280;20066;48.764;9.176;2023-04-07T01:06:50;98139.25;;;10.89;61.41
550;BME280;20066;48.764;9.176;2023-04-07T01:09:24;98138.47;;;10.95;59.72
550;BME280;20066;48.764;9.176;2023-04-07T01:12:04;98134.22;;;10.98;61.08
550;BME280;20066;48.764;9.176;2023-04-07T01:14:34;98135.81;;;10.70;61.53
550;BME280;20066;48.764;9.176;2023-04-07T01:17:07;98129.28;;;10.64;59.96
550;BME280;20066;48.764;9.176;2023-04-07T01:19:40;98120.81;;;10.73;59.07
550;BME280;20066;48.764;9.176;2023-04-07T01:22:13;98118.50;;;10.36;60.48
550;BME280;20066;48.764;9.176;2023-04-07T01:24:56;98118.88;;;10.52;60.48
550;BME280;20066;48.764;9.176;2023-04-07T01:27:35;98118.91;;;10.80;60.50
550;BME280;20066;48.764;9.176;2023-04-07T01:30:09;98122.75;;;10.72;60.45
550;BME280;20066;48.764;9.176;2023-04-07T01:32:39;98116.16;;;11.02;58.89
550;BME280;20066;48.764;9.176;2023-04-07T01:35:10;98111.97;;;10.33;61.48
550;BME280;20066;48.764;9.176;2023-04-07T01:37:39;98109.19;;;9.87;61.57
550;BME280;20066;48.764;9.176;2023-04-07T01:40:08;98115.25;;;9.66;63.92
550;BME280;20066;48.764;9.176;2023-04-07T01:42:37;98106.19;;;10.17;61.51
550;BME280;20066;48.764;9.176;2023-04-07T01:45:10;98102.00;;;10.37;61.47
550;BME280;20066;48.764;9.176;2023-04-07T01:47:39;98100.84;;;10.38;61.40
550;BME280;20066;48.764;9.176;2023-04-07T01:50:09;98098.94;;;10.50;62.35
550;BME280;20066;48.764;9.176;2023-04-07T01:52:38;98094.63;;;10.02;62.28
550;BME280;20066;48.764;9.176;2023-04-07T01:55:06;98096.56;;;10.02;62.42
550;BME280;20066;48.764;9.176;2023-04-07T01:57:35;98095.03;;;10.22;62.30
550;BME280;20066;48.764;9.176;2023-04-07T02:00:04;98087.56;;;9.41;63.31
550;BME280;20066;48.764;9.176;2023-04-07T02:02:35;98095.47;;;10.24;62.58
550;BME280;20066;48.764;9.176;2023-04-07T02:05:08;98092.28;;;9.76;63.01
550;BME280;20066;48.764;9.176;2023-04-07T02:07:43;98094.25;;;10.15;61.85
550;BME280;20066;48.764;9.176;2023-04-07T02:10:14;98092.72;;;10.06;63.99
550;BME280;20066;48.764;9.176;2023-04-07T02:12:43;98083.91;;;10.20;61.31
550;BME280;20066;48.764;9.176;2023-04-07T02:15:14;98078.13;;;10.00;62.37
550;BME280;20066;48.764;9.176;2023-04-07T02:17:47;98083.50;;;10.15;61.62
550;BME280;20066;48.764;9.176;2023-04-07T02:20:16;98085.84;;;10.73;60.21
550;BME280;20066;48.764;9.176;2023-04-07T02:22:45;98080.09;;;10.50;60.42
550;BME280;20066;48.764;9.176;2023-04-07T02:25:23;98071.25;;;10.35;61.32
550;BME280;20066;48.764;9.176;2023-04-07T02:27:51;98072.00;;;10.60;61.23
550;BME280;20066;48.764;9.176;2023-04-07T02:30:20;98073.88;;;11.02;59.36
550;BME280;20066;48.764;9.176;2023-04-07T02:32:49;98065.09;;;10.63;60.45
550;BME280;20066;48.764;9.176;2023-04-07T02:35:17;98064.72;;;10.29;61.63
550;BME280;20066;48.764;9.176;2023-04-07T02:37:45;98067.00;;;10.66;60.10
550;BME280;20066;48.764;9.176;2023-04-07T02:40:13;98067.41;;;10.64;60.06
550;BME280;20066;48.764;9.176;2023-04-07T02:42:42;98055.09;;;10.67;60.83
550;BME280;20066;48.764;9.176;2023-04-07T02:45:10;98056.28;;;10.62;60.90
550;BME280;20066;48.764;9.176;2023-04-07T02:47:38;98059.63;;;11.09;58.15
550;BME280;20066;48.764;9.176;2023-04-07T02:50:08;98060.84;;;10.79;59.73
550;BME280;20066;48.764;9.176;2023-04-07T02:52:36;98054.56;;;11.21;57.93
550;BME280;20066;48.764;9.176;2023-04-07T02:55:05;98060.72;;;11.22;56.82
550;BME280;20066;48.764;9.176;2023-04-07T02:57:33;98056.88;;;11.27;57.70
550;BME280;20066;48.764;9.176;2023-04-07T03:00:01;98049.69;;;10.88;58.58
550;BME280;20066;48.764;9.176;2023-04-07T03:02:28;98048.41;;;11.21;56.97
550;BME280;20066;48.764;9.176;2023-04-07T03:04:56;98048.16;;;10.76;58.52
550;BME280;20066;48.764;9.176;2023-04-07T03:07:25;98048.22;;;10.41;60.73
550;BME280;20066;48.764;9.176;2023-04-07T03:09:53;98043.53;;;10.88;58.58
550;BME280;20066;48.764;9.176;2023-04-07T03:12:21;98042.97;;;11.39;57.20
550;BME280;20066;48.764;9.176;2023-04-07T03:14:48;98043.81;;;11.21;56.63
550;BME280;20066;48.764;9.176;2023-04-07T03:17:16;98044.59;;;11.15;57.14
550;BME280;20066;48.764;9.176;2023-04-07T03:19:44;98038.09;;;11.09;56.89
550;BME280;20066;48.764;9.176;2023-04-07T03:22:12;98038.34;;;11.36;56.42
550;BME280;20066;48.764;9.176;2023-04-07T03:24:41;98040.81;;;10.98;56.12
550;BME280;20066;48.764;9.176;2023-04-07T03:27:09;98037.63;;;11.35;55.54
550;BME280;20066;48.764;9.176;2023-04-07T03:29:36;98033.31;;;11.45;55.50
550;BME280;20066;48.764;9.176;2023-04-07T03:32:04;98029.53;;;11.28;54.86
550;BME280;20066;48.764;9.176;2023-04-07T03:34:32;98037.06;;;10.35;57.65
550;BME280;20066;48.764;9.176;2023-04-07T03:37:00;98026.34;;;10.32;58.06
550;BME280;20066;48.764;9.176;2023-04-07T03:39:27;98019.38;;;10.59;57.32
550;BME280;20066;48.764;9.176;2023-04-07T03:41:57;98022.00;;;10.84;56.34
550;BME280;20066;48.764;9.176;2023-04-07T03:44:24;98017.47;;;10.21;58.92
550;BME280;20066;48.764;9.176;2023-04-07T03:46:52;98020.94;;;10.14;59.53
550;BME280;20066;48.764;9.176;2023-04-07T03:49:20;98020.19;;;10.17;58.66
550;BME280;20066;48.764;9.176;2023-04-07T03:51:48;98023.25;;;9.94;59.20
550;BME280;20066;48.764;9.176;2023-04-07T03:54:16;98022.84;;;10.14;59.71
550;BME280;20066;48.764;9.176;2023-04-07T03:56:43;98017.84;;;10.72;56.72
550;BME280;20066;48.764;9.176;2023-04-07T03:59:13;98013.53;;;10.89;56.48
550;BME280;20066;48.764;9.176;2023-04-07T04:01:40;98002.84;;;10.71;56.30
550;BME280;20066;48.764;9.176;2023-04-07T04:04:08;98006.75;;;10.31;58.92
550;BME280;20066;48.764;9.176;2023-04-07T04:06:37;98015.56;;;10.28;58.93
550;BME280;20066;48.764;9.176;2023-04-07T04:09:04;98007.50;;;10.11;58.72
550;BME280;20066;48.764;9.176;2023-04-07T04:11:32;98015.59;;;10.25;57.44
550;BME280;20066;48.764;9.176;2023-04-07T04:14:00;98013.25;;;9.91;58.81
550;BME280;20066;48.764;9.176;2023-04-07T04:16:29;98008.88;;;9.26;60.24
550;BME280;20066;48.764;9.176;2023-04-07T04:18:57;97999.13;;;8.83;62.59
550;BME280;20066;48.764;9.176;2023-04-07T04:21:24;98007.38;;;9.29;62.00
550;BME280;20066;48.764;9.176;2023-04-07T04:23:53;98002.72;;;9.08;62.21
550;BME280;20066;48.764;9.176;2023-04-07T04:26:21;97997.75;;;9.17;63.08
550;BME280;20066;48.764;9.176;2023-04-07T04:28:51;98000.97;;;10.01;59.79
550;BME280;20066;48.764;9.176;2023-04-07T04:31:19;97995.97;;;9.75;60.27
550;BME280;20066;48.764;9.176;2023-04-07T04:33:48;97996.75;;;9.96;59.52
550;BME280;20066;48.764;9.176;2023-04-07T04:36:16;97999.81;;;10.02;59.81
550;BME280;20066;48.764;9.176;2023-04-07T04:38:44;97998.66;;;10.49;58.78
550;BME280;20066;48.764;9.176;2023-04-07T04:41:12;97999.06;;;10.33;58.99
550;BME280;20066;48.764;9.176;2023-04-07T04:43:39;97994.75;;;10.75;58.22
550;BME280;20066;48.764;9.176;2023-04-07T04:46:08;98003.91;;;11.02;56.92
550;BME280;20066;48.764;9.176;2023-04-07T04:48:35;98006.50;;;11.23;55.96
550;BME280;20066;48.764;9.176;2023-04-07T04:51:06;98000.75;;;11.18;56.04
550;BME280;20066;48.764;9.176;2023-04-07T04:53:33;97996.66;;;10.85;57.64
550;BME280;20066;48.764;9.176;2023-04-07T04:56:01;98001.19;;;11.09;57.45
550;BME280;20066;48.764;9.176;2023-04-07T04:58:29;98004.16;;;11.33;56.13
550;BME280;20066;48.764;9.176;2023-04-07T05:00:57;98006.28;;;11.59;55.45
550;BME280;20066;48.764;9.176;2023-04-07T05:03:26;98005.16;;;11.64;54.98
550;BME280;20066;48.764;9.176;2023-04-07T05:05:55;97998.19;;;11.70;54.49
550;BME280;20066;48.764;9.176;2023-04-07T05:08:24;98010.31;;;11.33;55.01
550;BME280;20066;48.764;9.176;2023-04-07T05:10:52;98006.19;;;11.07;56.13
550;BME280;20066;48.764;9.176;2023-04-07T05:13:20;98004.25;;;11.04;57.02
550;BME280;20066;48.764;9.176;2023-04-07T05:15:48;98007.34;;;11.10;57.30
550;BME280;20066;48.764;9.176;2023-04-07T05:18:16;98011.47;;;11.29;55.91
550;BME280;20066;48.764;9.176;2023-04-07T05:20:43;98012.09;;;11.54;55.59
550;BME280;20066;48.764;9.176;2023-04-07T05:23:11;98013.25;;;11.64;55.64
550;BME280;20066;48.764;9.176;2023-04-07T05:25:40;98010.69;;;11.35;56.17
550;BME280;20066;48.764;9.176;2023-04-07T05:28:08;98002.59;;;11.35;56.03
550;BME280;20066;48.764;9.176;2023-04-07T05:30:36;98008.00;;;11.35;56.46
550;BME280;20066;48.764;9.176;2023-04-07T05:33:04;98011.16;;;11.12;56.63
550;BME280;20066;48.764;9.176;2023-04-07T05:35:31;98013.25;;;11.53;55.28
550;BME280;20066;48.764;9.176;2023-04-07T05:37:59;98017.13;;;11.52;55.16
550;BME280;20066;48.764;9.176;2023-04-07T05:40:27;98010.16;;;11.65;55.66
550;BME280;20066;48.764;9.176;2023-04-07T05:42:56;98008.34;;;11.41;56.98
550;BME280;20066;48.764;9.176;2023-04-07T05:45:24;97998.69;;;11.43;55.86
550;BME280;20066;48.764;9.176;2023-04-07T05:47:52;98007.38;;;11.76;55.43
550;BME280;20066;48.764;9.176;2023-04-07T05:50:20;98013.16;;;11.78;55.22
550;BME280;20066;48.764;9.176;2023-04-07T05:52:47;98015.00;;;11.88;54.88
550;BME280;20066;48.764;9.176;2023-04-07T05:55:15;98015.13;;;11.74;55.92
550;BME280;20066;48.764;9.176;2023-04-07T05:57:43;98007.84;;;11.64;56.20
550;BME280;20066;48.764;9.176;2023-04-07T06:00:13;98018.53;;;11.74;56.05
550;BME280;20066;48.764;9.176;2023-04-07T06:02:41;98014.38;;;11.63;55.52
550;BME280;20066;48.764;9.176;2023-04-07T06:05:09;98018.75;;;12.05;54.72
550;BME280;20066;48.764;9.176;2023-04-07T06:07:37;98019.19;;;11.92;55.10
550;BME280;20066;48.764;9.176;2023-04-07T06:10:06;98017.31;;;11.89;54.84
550;BME280;20066;48.764;9.176;2023-04-07T06:12:34;98027.28;;;11.96;54.22
550;BME280;20066;48.764;9.176;2023-04-07T06:15:02;98019.09;;;12.10;53.88
550;BME280;20066;48.764;9.176;2023-04-07T06:17:31;98020.75;;;11.93;55.24
550;BME280;20066;48.764;9.176;2023-04-07T06:19:59;98021.69;;;11.66;54.43
550;BME280;20066;48.764;9.176;2023-04-07T06:22:27;98025.06;;;11.80;54.75
550;BME280;20066;48.764;9.176;2023-04-07T06:24:55;98027.84;;;11.66;55.17
550;BME280;20066;48.764;9.176;2023-04-07T06:27:22;98025.16;;;11.63;55.59
550;BME280;20066;48.764;9.176;2023-04-07T06:29:51;98013.75;;;11.99;54.54
550;BME280;20066;48.764;9.176;2023-04-07T06:32:18;98012.59;;;12.04;55.52
550;BME280;20066;48.764;9.176;2023-04-07T06:34:48;98026.03;;;12.08;55.28
550;BME280;20066;48.764;9.176;2023-04-07T06:37:16;98025.56;;;12.16;54.13
550;BME280;20066;48.764;9.176;2023-04-07T06:39:44;98026.19;;;12.34;53.34
550;BME280;20066;48.764;9.176;2023-04-07T06:42:11;98024.41;;;12.62;52.30
550;BME280;20066;48.764;9.176;2023-04-07T06:44:39;98022.09;;;12.60;52.07
550;BME280;20066;48.764;9.176;2023-04-07T06:47:07;98023.91;;;12.33;53.74
550;BME280;20066;48.764;9.176;2023-04-07T06:49:35;98019.16;;;12.44;52.24
550;BME280;20066;48.764;9.176;2023-04-07T06:52:04;98022.06;;;12.64;52.41
550;BME280;20066;48.764;9.176;2023-04-07T06:54:32;98013.56;;;12.65;52.84
550;BME280;20066;48.764;9.176;2023-04-07T06:57:00;98015.31;;;12.83;52.30
550;BME280;20066;48.764;9.176;2023-04-07T06:59:28;98020.53;;;12.63;52.77
550;BME280;20066;48.764;9.176;2023-04-07T07:01:55;98011.81;;;12.89;52.43
550;BME280;20066;48.764;9.176;2023-04-07T07:04:24;98015.84;;;12.67;51.81
550;BME280;20066;48.764;9.176;2023-04-07T07:06:52;98016.00;;;12.08;52.49
550;BME280;20066;48.764;9.176;2023-04-07T07:09:22;98018.28;;;11.51;54.39
550;BME280;20066;48.764;9.176;2023-04-07T07:11:50;98016.34;;;10.57;57.83
550;BME280;20066;48.764;9.176;2023-04-07T07:14:18;98012.03;;;10.84;58.06
550;BME280;20066;48.764;9.176;2023-04-07T07:16:46;98009.53;;;11.33;55.48
550;BME280;20066;48.764;9.176;2023-04-07T07:19:14;98004.88;;;11.37;55.92
550;BME280;20066;48.764;9.176;2023-04-07T07:21:42;98008.59;;;10.66;56.87
550;BME280;20066;48.764;9.176;2023-04-07T07:24:10;98008.63;;;10.56;58.17
550;BME280;20066;48.764;9.176;2023-04-07T07:26:39;98012.84;;;11.65;55.91
550;BME280;20066;48.764;9.176;2023-04-07T07:29:09;98008.81;;;11.25;56.00
550;BME280;20066;48.764;9.176;2023-04-07T07:31:37;98018.31;;;11.47;54.55
550;BME280;20066;48.764;9.176;2023-04-07T07:34:05;98026.72;;;12.15;53.48
550;BME280;20066;48.764;9.176;2023-04-07T07:36:33;98017.47;;;12.61;51.83
550;BME280;20066;48.764;9.176;2023-04-07T07:39:01;98022.88;;;12.13;52.38
550;BME280;20066;48.764;9.176;2023-04-07T07:41:28;98022.44;;;12.21;53.11
550;BME280;20066;48.764;9.176;2023-04-07T07:43:58;98014.97;;;12.81;51.72
550;BME280;20066;48.764;9.176;2023-04-07T07:46:25;98028.06;;;13.16;50.45
550;BME280;20066;48.764;9.176;2023-04-07T07:48:53;98022.75;;;13.09;50.21
550;BME280;20066;48.764;9.176;2023-04-07T07:51:21;98025.97;;;13.31;50.22
550;BME280;20066;48.764;9.176;2023-04-07T07:53:49;98024.06;;;13.85;49.35
550;BME280;20066;48.764;9.176;2023-04-07T07:56:18;98022.97;;;14.33;48.27
550;BME280;20066;48.764;9.176;2023-04-07T07:58:47;98020.97;;;15.59;45.76
550;BME280;20066;48.764;9.176;2023-04-07T08:01:16;98025.91;;;18.71;39.30
550;BME280;20066;48.764;9.176;2023-04-07T08:03:44;98027.28;;;18.88;38.12
550;BME280;20066;48.764;9.176;2023-04-07T08:06:12;98041.88;;;19.99;35.98
550;BME280;20066;48.764;9.176;2023-04-07T08:08:42;98033.44;;;19.76;36.57
550;BME280;20066;48.764;9.176;2023-04-07T08:11:09;98031.78;;;19.56;35.55
550;BME280;20066;48.764;9.176;2023-04-07T08:13:37;98035.31;;;21.46;33.28
550;BME280;20066;48.764;9.176;2023-04-07T08:16:05;98031.78;;;18.35;37.38
550;BME280;20066;48.764;9.176;2023-04-07T08:18:35;98042.66;;;21.82;32.27
550;BME280;20066;48.764;9.176;2023-04-07T08:21:04;98042.78;;;21.37;32.63
550;BME280;20066;48.764;9.176;2023-04-07T08:23:34;98037.91;;;17.76;39.71
550;BME280;20066;48.764;9.176;2023-04-07T08:26:02;98040.75;;;17.02;41.75
550;BME280;20066;48.764;9.176;2023-04-07T08:28:30;98038.84;;;16.57;42.32
550;BME280;20066;48.764;9.176;2023-04-07T08:30:57;98043.78;;;17.20;40.34
550;BME280;20066;48.764;9.176;2023-04-07T08:33:25;98043.19;;;16.38;41.13
550;BME280;20066;48.764;9.176;2023-04-07T08:35:54;98043.97;;;16.84;41.53
550;BME280;20066;48.764;9.176;2023-04-07T08:38:23;98051.41;;;17.25;40.73
550;BME280;20066;48.764;9.176;2023-04-07T08:40:56;98042.28;;;16.09;42.99
550;BME280;20066;48.764;9.176;2023-04-07T08:43:25;98039.16;;;16.10;42.67
550;BME280;20066;48.764;9.176;2023-04-07T08:45:55;98045.56;;;16.81;41.60
550;BME280;20066;48.764;9.176;2023-04-07T08:48:23;98047.69;;;17.19;40.83
550;BME280;20066;48.764;9.176;2023-04-07T08:50:53;98038.00;;;16.44;41.74
550;BME280;20066;48.764;9.176;2023-04-07T08:53:27;98047.25;;;15.02;45.05
550;BME280;20066;48.764;9.176;2023-04-07T08:56:02;98037.56;;;15.97;43.15
550;BME280;20066;48.764;9.176;2023-04-07T08:58:32;98042.50;;;16.50;42.21
550;BME280;20066;48.764;9.176;2023-04-07T09:01:00;98043.00;;;16.90;41.49
550;BME280;20066;48.764;9.176;2023-04-07T09:03:28;98043.28;;;14.87;45.60
550;BME280;20066;48.764;9.176;2023-04-07T09:05:59;98051.94;;;15.22;44.90
550;BME280;20066;48.764;9.176;2023-04-07T09:08:29;98038.88;;;15.17;44.44
550;BME280;20066;48.764;9.176;2023-04-07T09:10:57;98047.50;;;16.52;42.62
550;BME280;20066;48.764;9.176;2023-04-07T09:13:25;98052.50;;;15.69;44.90
550;BME280;20066;48.764;9.176;2023-04-07T09:15:53;98053.91;;;16.74;41.43
550;BME280;20066;48.764;9.176;2023-04-07T09:18:21;98046.41;;;14.16;47.17
550;BME280;20066;48.764;9.176;2023-04-07T09:20:56;98034.38;;;15.46;45.41
550;BME280;20066;48.764;9.176;2023-04-07T09:23:31;98043.38;;;16.15;42.95
550;BME280;20066;48.764;9.176;2023-04-07T09:26:01;98035.59;;;15.45;45.58
550;BME280;20066;48.764;9.176;2023-04-07T09:28:45;98043.84;;;17.45;40.62
550;BME280;20066;48.764;9.176;2023-04-07T09:31:13;98040.69;;;19.17;37.39
550;BME280;20066;48.764;9.176;2023-04-07T09:33:42;98045.22;;;16.79;40.76
550;BME280;20066;48.764;9.176;2023-04-07T09:36:10;98040.78;;;17.43;39.85
550;BME280;20066;48.764;9.176;2023-04-07T09:38:40;98043.13;;;19.46;36.72
550;BME280;20066;48.764;9.176;2023-04-07T09:41:09;98043.19;;;19.33;36.47
550;BME280;20066;48.764;9.176;2023-04-07T09:43:40;98040.38;;;22.47;31.98
550;BME280;20066;48.764;9.176;2023-04-07T09:46:12;98043.41;;;21.23;33.13
550;BME280;20066;48.764;9.176;2023-04-07T09:48:41;98035.00;;;18.55;36.81
550;BME280;20066;48.764;9.176;2023-04-07T09:51:11;98038.78;;;17.98;39.33
550;BME280;20066;48.764;9.176;2023-04-07T09:53:43;98037.03;;;18.64;37.88
550;BME280;20066;48.764;9.176;2023-04-07T09:56:13;98042.81;;;19.44;36.10
550;BME280;20066;48.764;9.176;2023-04-07T09:58:44;98027.66;;;19.21;36.32
550;BME280;20066;48.764;9.176;2023-04-07T10:01:14;98032.88;;;19.90;34.44
550;BME280;20066;48.764;9.176;2023-04-07T10:03:44;98038.59;;;20.14;34.30
550;BME280;20066;48.764;9.176;2023-04-07T10:06:13;98037.59;;;16.29;41.52
550;BME280;20066;48.764;9.176;2023-04-07T10:08:43;98044.78;;;16.97;40.77
550;BME280;20066;48.764;9.176;2023-04-07T10:11:14;98041.00;;;17.49;40.21
550;BME280;20066;48.764;9.176;2023-04-07T10:13:42;98043.97;;;14.48;46.32
550;BME280;20066;48.764;9.176;2023-04-07T10:16:10;98035.78;;;16.06;43.18
550;BME280;20066;48.764;9.176;2023-04-07T10:18:39;98037.63;;;15.21;45.65
550;BME280;20066;48.764;9.176;2023-04-07T10:21:09;98033.00;;;13.82;49.43
550;BME280;20066;48.764;9.176;2023-04-07T10:23:50;98035.97;;;14.84;46.10
550;BME280;20066;48.764;9.176;2023-04-07T10:26:22;98043.16;;;16.06;43.56
550;BME280;20066;48.764;9.176;2023-04-07T10:28:55;98034.38;;;15.46;44.66
550;BME280;20066;48.764;9.176;2023-04-07T10:31:25;98037.63;;;14.35;47.01
550;BME280;20066;48.764;9.176;2023-04-07T10:33:53;98042.31;;;14.97;45.80
550;BME280;20066;48.764;9.176;2023-04-07T10:36:22;98038.91;;;14.27;47.95
550;BME280;20066;48.764;9.176;2023-04-07T10:39:20;98042.72;;;14.53;47.22
550;BME280;20066;48.764;9.176;2023-04-07T10:41:48;98042.38;;;14.94;46.11
550;BME280;20066;48.764;9.176;2023-04-07T10:44:46;98038.56;;;15.31;45.20
550;BME280;20066;48.764;9.176;2023-04-07T10:47:16;98043.56;;;14.26;47.64
550;BME280;20066;48.764;9.176;2023-04-07T10:50:14;98038.59;;;13.68;50.09
550;BME280;20066;48.764;9.176;2023-04-07T10:52:43;98045.94;;;13.37;49.45
550;BME280;20066;48.764;9.176;2023-04-07T10:55:36;98036.75;;;14.42;47.45
550;BME280;20066;48.764;9.176;2023-04-07T10:58:22;98041.72;;;15.29;45.41
550;BME280;20066;48.764;9.176;2023-04-07T11:01:15;98034.53;;;14.10;48.47
550;BME280;20066;48.764;9.176;2023-04-07T11:03:57;98031.53;;;13.17;49.96
550;BME280;20066;48.764;9.176;2023-04-07T11:06:25;98038.78;;;13.53;49.06
550;BME280;20066;48.764;9.176;2023-04-07T11:08:54;98037.41;;;14.69;47.11
550;BME280;20066;48.764;9.176;2023-04-07T11:11:40;98037.13;;;15.07;45.93
550;BME280;20066;48.764;9.176;2023-04-07T11:14:08;98031.50;;;15.17;45.54
550;BME280;20066;48.764;9.176;2023-04-07T11:16:42;98032.94;;;16.13;43.16
550;BME280;20066;48.764;9.176;2023-04-07T11:19:11;98035.03;;;14.51;46.08
550;BME280;20066;48.764;9.176;2023-04-07T11:21:38;98038.44;;;14.55;46.27
550;BME280;20066;48.764;9.176;2023-04-07T11:24:06;98029.16;;;15.19;45.26
550;BME280;20066;48.764;9.176;2023-04-07T11:26:39;98030.16;;;14.86;45.31
550;BME280;20066;48.764;9.176;2023-04-07T11:29:07;98031.59;;;14.71;46.70
550;BME280;20066;48.764;9.176;2023-04-07T11:31:37;98034.72;;;15.12;45.11
550;BME280;20066;48.764;9.176;2023-04-07T11:34:06;98039.84;;;14.63;46.54
550;BME280;20066;48.764;9.176;2023-04-07T11:36:38;98043.72;;;14.16;48.36
550;BME280;20066;48.764;9.176;2023-04-07T11:39:17;98044.91;;;14.38;50.18
550;BME280;20066;48.764;9.176;2023-04-07T11:41:48;98048.06;;;14.80;48.01
550;BME280;20066;48.764;9.176;2023-04-07T11:44:16;98056.28;;;15.55;46.66
550;BME280;20066;48.764;9.176;2023-04-07T11:46:54;98056.47;;;14.85;50.01
550;BME280;20066;48.764;9.176;2023-04-07T11:49:23;98064.31;;;14.33;52.03
550;BME280;20066;48.764;9.176;2023-04-07T11:51:57;98064.31;;;14.10;53.65
550;BME280;20066;48.764;9.176;2023-04-07T11:54:25;98069.56;;;14.44;53.14
550;BME280;20066;48.764;9.176;2023-04-07T11:56:55;98071.03;;;14.25;53.02
550;BME280;20066;48.764;9.176;2023-04-07T11:59:23;98074.13;;;13.97;53.07
550;BME280;20066;48.764;9.176;2023-04-07T12:01:52;98082.75;;;14.15;53.23
550;BME280;20066;48.764;9.176;2023-04-07T12:04:23;98083.88;;;14.17;53.59
550;BME280;20066;48.764;9.176;2023-04-07T12:06:51;98087.28;;;13.95;56.36
550;BME280;20066;48.764;9.176;2023-04-07T12:09:25;98086.19;;;13.62;58.42
550;BME280;20066;48.764;9.176;2023-04-07T12:11:55;98098.66;;;12.77;59.31
550;BME280;20066;48.764;9.176;2023-04-07T12:14:24;98102.00;;;12.95;60.08
550;BME280;20066;48.764;9.176;2023-04-07T12:16:53;98105.19;;;12.31;63.98
550;BME280;20066;48.764;9.176;2023-04-07T12:19:22;98100.25;;;12.74;61.94
550;BME280;20066;48.764;9.176;2023-04-07T12:21:50;98106.78;;;12.73;61.38
550;BME280;20066;48.764;9.176;2023-04-07T12:24:18;98106.38;;;13.20;60.36
550;BME280;20066;48.764;9.176;2023-04-07T12:26:45;98109.41;;;13.86;56.69
550;BME280;20066;48.764;9.176;2023-04-07T12:29:15;98105.81;;;13.96;57.40
550;BME280;20066;48.764;9.176;2023-04-07T12:31:45;98105.84;;;13.93;55.31
550;BME280;20066;48.764;9.176;2023-04-07T12:34:16;98102.81;;;14.17;54.71
550;BME280;20066;48.764;9.176;2023-04-07T12:36:44;98100.00;;;14.24;55.03
550;BME280;20066;48.764;9.176;2023-04-07T12:39:12;98109.09;;;13.50;60.04
550;BME280;20066;48.764;9.176;2023-04-07T12:41:40;98109.78;;;13.88;56.99
550;BME280;20066;48.764;9.176;2023-04-07T12:44:08;98110.19;;;13.86;56.81
550;BME280;20066;48.764;9.176;2023-04-07T12:46:37;98111.72;;;14.18;54.99
550;BME280;20066;48.764;9.176;2023-04-07T12:49:05;98103.59;;;13.87;56.78
550;BME280;20066;48.764;9.176;2023-04-07T12:51:33;98099.81;;;14.12;54.79
550;BME280;20066;48.764;9.176;2023-04-07T12:54:01;98103.16;;;12.46;59.87
550;BME280;20066;48.764;9.176;2023-04-07T12:56:29;98090.13;;;11.79;62.97
550;BME280;20066;48.764;9.176;2023-04-07T12:58:57;98095.63;;;12.23;62.92
550;BME280;20066;48.764;9.176;2023-04-07T13:01:25;98097.59;;;13.08;59.10
550;BME280;20066;48.764;9.176;2023-04-07T13:03:55;98090.03;;;13.30;57.51
550;BME280;20066;48.764;9.176;2023-04-07T13:06:23;98085.91;;;13.52;57.13
550;BME280;20066;48.764;9.176;2023-04-07T13:08:51;98077.63;;;13.67;55.60
550;BME280;20066;48.764;9.176;2023-04-07T13:11:18;98084.88;;;14.00;56.02
550;BME280;20066;48.764;9.176;2023-04-07T13:13:47;98082.78;;;13.58;58.96
550;BME280;20066;48.764;9.176;2023-04-07T13:16:15;98086.31;;;14.12;57.08
550;BME280;20066;48.764;9.176;2023-04-07T13:18:43;98087.56;;;14.04;55.91
550;BME280;20066;48.764;9.176;2023-04-07T13:21:12;98086.34;;;14.08;56.42
550;BME280;20066;48.764;9.176;2023-04-07T13:23:43;98086.31;;;14.12;55.54
550;BME280;20066;48.764;9.176;2023-04-07T13:26:12;98085.47;;;13.84;57.34
550;BME280;20066;48.764;9.176;2023-04-07T13:28:40;98094.97;;;14.26;54.41
550;BME280;20066;48.764;9.176;2023-04-07T13:31:11;98092.03;;;14.41;57.05
550;BME280;20066;48.764;9.176;2023-04-07T13:33:42;98095.13;;;14.16;58.28
550;BME280;20066;48.764;9.176;2023-04-07T13:36:10;98094.84;;;13.80;60.70